Whitmore, California
Current Conditions -  °F | °C
As of 3:53 AM on Saturday 25 Oct 2014 (Local Time) from KRDD Reporting Station
Clear Clear  
Wind Chill: 62°   Ceiling: Unl
Heat Index: 62°   Visibility: 10mi
Dew Point: 52°   Wind: 13mph
Humidity: 70%   Direction: 170°S
Pressure: 29.76"   Gusts: NA
Location:  40.63°N, 121.92°W
Report Text: KRDD 251053Z AUTO 17011KT 10SM CLR 17/11 A2976 RMK AO2 SLP074 T01670111
Loading
Personal Weather Stations






























Interactive Weather Map
Tropical Storm Tracking
New forecast layout! Learn more

10-Day Weather Forecast

Advertisements
Track Severe Weather on mobile